createdAt,value
2019-02-16T00:02:26.404Z,22.73
2019-02-16T00:04:56.574Z,22.50
2019-02-16T00:09:56.928Z,25.52
2019-02-16T00:12:29.212Z,24.27
2019-02-16T00:15:00.664Z,26.35
2019-02-16T00:17:29.972Z,24.98
2019-02-16T00:19:58.938Z,25.73
2019-02-16T00:22:33.895Z,28.42
2019-02-16T00:25:07.082Z,27.20
2019-02-16T00:27:38.725Z,26.48
2019-02-16T00:30:07.826Z,25.15
2019-02-16T00:32:36.837Z,25.62
2019-02-16T00:35:15.085Z,30.55
2019-02-16T00:37:44.062Z,26.35
2019-02-16T00:40:13.031Z,27.25
2019-02-16T00:42:41.999Z,25.92
2019-02-16T00:45:11.021Z,30.60
2019-02-16T00:47:40.003Z,26.17
2019-02-16T00:50:21.725Z,30.65
2019-02-16T00:52:45.972Z,29.40
2019-02-16T00:55:16.491Z,30.40
2019-02-16T00:57:47.078Z,28.27
2019-02-16T01:00:17.813Z,30.80
2019-02-16T01:02:51.443Z,27.45
2019-02-16T01:05:20.416Z,27.37
2019-02-16T01:07:49.383Z,28.12
2019-02-16T01:10:22.335Z,30.45
2019-02-16T01:12:51.290Z,26.80
2019-02-16T01:15:24.055Z,29.72
2019-02-16T01:17:54.635Z,28.83
2019-02-16T01:20:23.601Z,29.12
2019-02-16T01:22:53.679Z,30.48
2019-02-16T01:25:24.249Z,31.50
2019-02-16T01:27:53.370Z,31.62
2019-02-16T01:30:24.475Z,29.92
2019-02-16T01:32:53.484Z,30.75
2019-02-16T01:35:25.911Z,30.23
2019-02-16T01:37:54.968Z,31.30
2019-02-16T01:40:24.465Z,36.15
2019-02-16T01:42:53.635Z,29.92
2019-02-16T01:45:24.438Z,28.47
2019-02-16T01:47:53.625Z,31.48
2019-02-16T01:50:23.133Z,28.43
2019-02-16T01:52:52.128Z,36.45
2019-02-16T01:55:21.129Z,29.63
2019-02-16T01:57:50.247Z,31.27
2019-02-16T02:00:19.238Z,30.37
2019-02-16T02:02:51.813Z,29.50
2019-02-16T02:05:22.815Z,29.72
2019-02-16T02:07:57.451Z,33.55
2019-02-16T02:10:29.722Z,31.75
2019-02-16T02:13:02.114Z,33.02
2019-02-16T02:15:31.270Z,36.30
2019-02-16T02:18:01.827Z,33.08
2019-02-16T02:20:43.126Z,35.30
2019-02-16T02:23:12.149Z,32.35
2019-02-16T02:25:42.667Z,32.25
2019-02-16T02:28:11.732Z,31.90
2019-02-16T02:30:40.738Z,35.38
2019-02-16T02:33:11.052Z,36.00
2019-02-16T02:35:40.106Z,34.00
2019-02-16T02:38:09.177Z,36.60
2019-02-16T02:40:38.212Z,33.90
2019-02-16T02:43:07.267Z,35.52
2019-02-16T02:45:36.293Z,32.83
2019-02-16T02:48:07.163Z,37.10
2019-02-16T02:51:01.565Z,34.43
2019-02-16T02:53:31.676Z,34.53
2019-02-16T02:56:02.695Z,33.33
2019-02-16T02:58:31.757Z,40.38
2019-02-16T03:01:04.233Z,33.02
2019-02-16T03:03:35.695Z,35.50
2019-02-16T03:06:07.749Z,38.00
2019-02-16T03:08:38.368Z,32.35
2019-02-16T03:11:10.729Z,37.88
2019-02-16T03:13:42.370Z,31.93
2019-02-16T03:16:13.081Z,33.13
2019-02-16T03:18:50.429Z,35.03
2019-02-16T03:21:19.502Z,37.90
2019-02-16T03:23:48.587Z,35.28
2019-02-16T03:26:19.122Z,35.03
2019-02-16T03:28:49.659Z,39.30
2019-02-16T03:31:31.746Z,37.95
2019-02-16T03:34:20.998Z,35.08
2019-02-16T03:37:09.077Z,37.00
2019-02-16T03:39:44.417Z,33.38
2019-02-16T03:42:13.508Z,40.08
2019-02-16T03:44:46.356Z,36.48
2019-02-16T03:47:15.380Z,35.83
2019-02-16T03:49:50.600Z,37.53
2019-02-16T03:52:19.610Z,33.90
2019-02-16T03:54:48.597Z,37.30
2019-02-16T03:57:18.031Z,39.23
2019-02-16T03:59:49.814Z,41.73
2019-02-16T04:02:21.594Z,35.68
2019-02-16T04:04:52.271Z,38.00
2019-02-16T04:07:21.254Z,40.00
2019-02-16T04:09:52.011Z,35.40
2019-02-16T04:12:25.783Z,36.20
2019-02-16T04:15:02.616Z,36.23
2019-02-16T04:17:33.121Z,35.50
2019-02-16T04:20:02.161Z,38.67
2019-02-16T04:22:35.100Z,36.25
2019-02-16T04:25:04.475Z,39.23
2019-02-16T04:27:39.581Z,39.48
2019-02-16T04:30:08.983Z,37.05
2019-02-16T04:32:39.918Z,39.03
2019-02-16T04:35:08.651Z,36.03
2019-02-16T04:37:37.675Z,38.45
2019-02-16T04:40:06.759Z,38.73
2019-02-16T04:42:35.738Z,35.48
2019-02-16T04:45:05.931Z,41.98
2019-02-16T04:50:04.152Z,39.48
2019-02-16T04:52:35.059Z,36.53
2019-02-16T04:55:07.219Z,38.10
2019-02-16T04:57:36.273Z,38.20
2019-02-16T05:00:06.006Z,41.23
2019-02-16T05:02:34.984Z,40.20
2019-02-16T05:05:04.609Z,37.78
2019-02-16T05:07:36.156Z,36.80
2019-02-16T05:10:07.251Z,41.77
2019-02-16T05:12:36.234Z,40.08
2019-02-16T05:15:06.765Z,42.80
2019-02-16T05:17:43.997Z,40.43
2019-02-16T05:20:18.233Z,40.80
2019-02-16T05:22:48.696Z,37.03
2019-02-16T05:25:18.352Z,40.10
2019-02-16T05:27:47.374Z,40.12
2019-02-16T05:30:17.888Z,40.55
2019-02-16T05:32:47.067Z,38.08
2019-02-16T05:35:16.094Z,39.17
2019-02-16T05:37:47.506Z,41.15
2019-02-16T05:40:17.681Z,41.20
2019-02-16T05:42:48.339Z,42.35
2019-02-16T05:45:17.296Z,41.23
2019-02-16T05:47:46.256Z,41.30
2019-02-16T05:50:15.227Z,40.17
2019-02-16T05:52:53.767Z,37.48
2019-02-16T05:55:21.095Z,41.55
2019-02-16T05:57:50.086Z,43.10
2019-02-16T06:00:21.918Z,42.53
2019-02-16T06:02:54.206Z,39.88
2019-02-16T06:05:23.255Z,38.95
2019-02-16T06:07:52.262Z,38.10
2019-02-16T06:10:25.076Z,38.75
2019-02-16T06:12:54.519Z,42.85
2019-02-16T06:15:26.012Z,39.00
2019-02-16T06:17:56.997Z,40.08
2019-02-16T06:20:25.636Z,41.50
2019-02-16T06:23:03.876Z,38.33
2019-02-16T06:25:31.356Z,39.30
2019-02-16T06:28:06.520Z,40.28
2019-02-16T06:30:37.973Z,38.42
2019-02-16T06:33:06.927Z,42.13
2019-02-16T06:35:42.937Z,40.85
2019-02-16T06:38:12.041Z,41.30
2019-02-16T06:40:44.057Z,41.35
2019-02-16T06:43:13.025Z,39.53
2019-02-16T06:45:42.009Z,44.88
2019-02-16T06:48:10.969Z,43.78
2019-02-16T06:50:42.878Z,43.50
2019-02-16T06:53:19.328Z,42.67
2019-02-16T06:55:53.561Z,41.37
2019-02-16T06:58:22.147Z,42.90
2019-02-16T07:00:53.015Z,41.83
2019-02-16T07:03:24.721Z,43.13
2019-02-16T07:05:56.322Z,42.80
2019-02-16T07:08:25.417Z,42.93
2019-02-16T07:10:54.399Z,42.53
2019-02-16T07:13:23.390Z,43.02
2019-02-16T07:16:11.967Z,44.98
2019-02-16T07:18:42.575Z,43.75
2019-02-16T07:21:11.548Z,46.65
2019-02-16T07:23:43.562Z,51.65
2019-02-16T07:26:15.106Z,43.48
2019-02-16T07:31:19.554Z,47.03
2019-02-16T07:33:50.168Z,49.33
2019-02-16T07:36:19.154Z,44.25
2019-02-16T07:38:51.591Z,45.52
2019-02-16T07:41:20.944Z,46.08
2019-02-16T07:44:06.558Z,47.35
2019-02-16T07:46:50.917Z,48.65
2019-02-16T07:49:23.156Z,45.88
2019-02-16T07:52:09.709Z,45.38
2019-02-16T07:54:44.154Z,48.95
2019-02-16T07:57:20.301Z,47.90
2019-02-16T07:59:58.155Z,49.98
2019-02-16T08:02:32.346Z,50.80
2019-02-16T08:05:12.922Z,49.35
2019-02-16T08:07:59.390Z,48.20
2019-02-16T08:10:32.814Z,46.40
2019-02-16T08:13:03.416Z,49.70
2019-02-16T08:15:45.802Z,50.10
2019-02-16T08:18:30.831Z,50.23
2019-02-16T08:21:04.042Z,50.48
2019-02-16T08:23:45.624Z,47.53
2019-02-16T08:26:18.775Z,49.53
2019-02-16T08:28:54.372Z,50.80
2019-02-16T08:31:26.721Z,49.60
2019-02-16T08:33:57.630Z,48.08
2019-02-16T08:36:31.490Z,53.85
2019-02-16T08:39:17.600Z,49.13
2019-02-16T08:41:55.771Z,45.35
2019-02-16T08:44:34.660Z,49.23
2019-02-16T08:47:20.357Z,45.95
2019-02-16T08:49:50.947Z,49.50
2019-02-16T08:55:15.998Z,48.45
2019-02-16T08:58:01.548Z,47.95
2019-02-16T09:00:32.140Z,50.67
2019-02-16T09:03:19.122Z,50.28
2019-02-16T09:05:55.341Z,49.13
2019-02-16T09:08:33.937Z,50.08
2019-02-16T09:11:13.455Z,47.45
2019-02-16T09:13:52.839Z,48.52
2019-02-16T09:16:26.747Z,48.83
2019-02-16T09:18:57.362Z,51.18
2019-02-16T09:21:30.605Z,47.75
2019-02-16T09:24:06.187Z,48.73
2019-02-16T09:26:47.029Z,48.33
2019-02-16T09:29:23.577Z,44.25
2019-02-16T09:32:06.143Z,43.10
2019-02-16T09:34:43.039Z,45.58
2019-02-16T09:37:19.425Z,46.83
2019-02-16T09:40:06.770Z,44.55
2019-02-16T09:42:37.369Z,50.43
2019-02-16T09:45:29.635Z,45.58
2019-02-16T09:48:08.338Z,46.55
2019-02-16T09:50:38.935Z,46.50
2019-02-16T09:53:18.308Z,46.00
2019-02-16T09:55:48.911Z,47.58
2019-02-16T09:58:37.965Z,44.20
2019-02-16T10:01:17.511Z,46.83
2019-02-16T10:04:11.414Z,45.73
2019-02-16T10:06:48.275Z,52.00
2019-02-16T10:09:23.096Z,44.93
2019-02-16T10:12:15.251Z,49.05
2019-02-16T10:15:02.284Z,47.65
2019-02-16T10:17:39.641Z,47.40
2019-02-16T10:20:10.555Z,44.90
2019-02-16T10:22:43.737Z,49.55
2019-02-16T10:25:30.584Z,48.87
2019-02-16T10:28:08.724Z,45.70
2019-02-16T10:30:52.859Z,46.80
2019-02-16T10:33:32.410Z,49.08
2019-02-16T10:36:19.056Z,46.20
2019-02-16T10:39:02.624Z,46.15
2019-02-16T10:41:51.036Z,45.58
2019-02-16T10:44:29.560Z,45.98
2019-02-16T10:49:38.490Z,48.73
2019-02-16T10:52:28.274Z,43.65
2019-02-16T10:55:15.238Z,48.58
2019-02-16T10:57:45.896Z,48.55
2019-02-16T11:00:37.890Z,45.95
2019-02-16T11:03:17.538Z,49.18
2019-02-16T11:05:48.130Z,47.38
2019-02-16T11:08:21.478Z,49.60
2019-02-16T11:10:54.992Z,48.00
2019-02-16T11:13:34.307Z,49.80
2019-02-16T11:16:09.312Z,45.67
2019-02-16T11:18:42.934Z,49.03
2019-02-16T11:21:14.564Z,43.35
2019-02-16T11:23:58.770Z,46.23
2019-02-16T11:26:32.210Z,43.13
2019-02-16T11:29:05.577Z,47.88
2019-02-16T11:31:38.883Z,45.12
2019-02-16T11:34:24.943Z,45.85
2019-02-16T11:37:04.473Z,45.50
2019-02-16T11:39:55.599Z,47.53
2019-02-16T11:42:28.970Z,45.23
2019-02-16T11:45:05.543Z,45.12
2019-02-16T11:47:39.076Z,46.73
2019-02-16T11:50:23.059Z,43.10
2019-02-16T11:55:59.872Z,42.78
2019-02-16T11:58:48.663Z,46.85
2019-02-16T12:01:21.790Z,48.60
2019-02-16T12:04:02.569Z,46.83
2019-02-16T12:06:35.232Z,48.90
2019-02-16T12:09:09.374Z,50.15
2019-02-16T12:11:56.211Z,45.52
2019-02-16T12:14:30.966Z,43.70
2019-02-16T12:17:01.665Z,48.98
2019-02-16T12:19:32.604Z,43.70
2019-02-16T12:22:03.200Z,47.43
2019-02-16T12:24:35.435Z,48.17
2019-02-16T12:27:08.669Z,45.67
2019-02-16T12:29:39.406Z,49.27
2019-02-16T12:32:18.771Z,44.75
2019-02-16T12:35:01.192Z,46.13
2019-02-16T12:37:34.518Z,48.98
2019-02-16T12:40:25.963Z,45.33
2019-02-16T12:43:05.247Z,51.88
2019-02-16T12:45:35.890Z,49.08
2019-02-16T12:48:21.606Z,44.45
2019-02-16T12:51:06.162Z,51.13
2019-02-16T12:53:45.744Z,44.90
2019-02-16T12:56:32.138Z,44.90
2019-02-16T12:59:11.572Z,42.50
2019-02-16T13:01:56.229Z,46.83
2019-02-16T13:04:30.120Z,48.50
2019-02-16T13:07:00.810Z,44.67
2019-02-16T13:09:31.396Z,44.73
2019-02-16T13:12:12.940Z,48.75
2019-02-16T13:14:43.615Z,45.28
2019-02-16T13:17:32.476Z,45.10
2019-02-16T13:20:15.222Z,44.40
2019-02-16T13:22:51.312Z,43.68
2019-02-16T13:25:24.480Z,45.50
2019-02-16T13:28:12.252Z,46.83
2019-02-16T13:30:58.977Z,46.53
2019-02-16T13:33:49.483Z,48.42
2019-02-16T13:36:37.853Z,46.00
2019-02-16T13:39:08.736Z,44.35
2019-02-16T13:41:42.081Z,49.23
2019-02-16T13:44:17.260Z,46.90
2019-02-16T13:46:56.658Z,45.65
2019-02-16T13:49:29.691Z,46.42
2019-02-16T13:52:12.184Z,45.73
2019-02-16T13:54:58.099Z,49.63
2019-02-16T13:57:45.515Z,47.23
2019-02-16T14:00:17.384Z,44.73
2019-02-16T14:02:59.633Z,46.73
2019-02-16T14:05:46.670Z,47.40
2019-02-16T14:08:28.209Z,46.05
2019-02-16T14:13:53.044Z,49.75
2019-02-16T14:16:35.175Z,48.60
2019-02-16T14:19:04.150Z,43.17
2019-02-16T14:21:33.118Z,48.15
2019-02-16T14:24:05.669Z,45.25
2019-02-16T14:26:34.629Z,46.15
2019-02-16T14:29:06.166Z,47.05
2019-02-16T14:31:38.725Z,44.27
2019-02-16T14:34:07.779Z,45.55
2019-02-16T14:36:36.805Z,49.47
2019-02-16T14:39:11.621Z,44.18
2019-02-16T14:41:42.225Z,47.10
2019-02-16T14:44:14.066Z,45.03
2019-02-16T14:46:44.717Z,46.00
2019-02-16T14:49:15.295Z,44.27
2019-02-16T14:51:47.105Z,46.85
2019-02-16T14:54:17.566Z,45.35
2019-02-16T14:56:49.836Z,43.40
2019-02-16T14:59:18.853Z,42.93
2019-02-16T15:01:47.849Z,48.15
2019-02-16T15:04:16.825Z,48.20
2019-02-16T15:06:47.421Z,47.48
2019-02-16T15:09:24.420Z,47.53
2019-02-16T15:11:54.640Z,47.53
2019-02-16T15:14:28.844Z,43.48
2019-02-16T15:16:57.863Z,47.23
2019-02-16T15:19:26.878Z,46.77
2019-02-16T15:21:59.041Z,48.20
2019-02-16T15:24:28.007Z,46.35
2019-02-16T15:26:57.085Z,51.60
2019-02-16T15:29:26.049Z,51.88
2019-02-16T15:31:55.129Z,50.03
2019-02-16T15:34:25.888Z,43.30
2019-02-16T15:36:54.837Z,50.43
2019-02-16T15:39:23.853Z,47.70
2019-02-16T15:41:53.003Z,46.20
2019-02-16T15:44:22.236Z,49.80
2019-02-16T15:46:52.723Z,48.95
2019-02-16T15:49:30.386Z,47.23
2019-02-16T15:51:59.381Z,46.90
2019-02-16T15:54:28.461Z,47.70
2019-02-16T15:57:00.449Z,45.47
2019-02-16T15:59:35.186Z,45.70
2019-02-16T16:02:00.114Z,44.90
2019-02-16T16:04:29.238Z,49.80
2019-02-16T16:06:59.371Z,47.67
2019-02-16T16:09:34.500Z,46.42
2019-02-16T16:12:06.761Z,48.55
2019-02-16T16:14:38.595Z,50.90
2019-02-16T16:17:15.314Z,50.92
2019-02-16T16:19:50.365Z,50.67
2019-02-16T16:22:27.689Z,48.95
2019-02-16T16:25:18.402Z,49.85
2019-02-16T16:27:51.509Z,50.38
2019-02-16T16:30:30.779Z,52.75
2019-02-16T16:33:05.870Z,55.25
2019-02-16T16:35:36.486Z,57.23
2019-02-16T16:38:13.260Z,53.05
2019-02-16T16:41:00.258Z,55.48
2019-02-16T16:43:33.544Z,53.52
2019-02-16T16:46:07.132Z,57.17
2019-02-16T16:48:46.597Z,57.78
2019-02-16T16:51:17.227Z,55.85
2019-02-16T16:53:52.373Z,57.75
2019-02-16T16:56:39.722Z,60.85
2019-02-16T16:59:23.834Z,57.17
2019-02-16T17:02:10.817Z,57.43
2019-02-16T17:04:58.986Z,75.20
2019-02-16T17:07:44.523Z,67.95
2019-02-16T17:10:17.621Z,65.30
2019-02-16T17:12:52.631Z,68.37
2019-02-16T17:15:33.258Z,65.75
2019-02-16T17:18:03.877Z,62.13
2019-02-16T17:20:49.627Z,56.58
2019-02-16T17:23:35.255Z,64.62
2019-02-16T17:26:17.955Z,64.62
2019-02-16T17:29:03.536Z,62.20
2019-02-16T17:31:47.626Z,64.22
2019-02-16T17:34:18.554Z,64.67
2019-02-16T17:37:05.988Z,67.03
2019-02-16T17:39:42.583Z,62.00
2019-02-16T17:42:22.056Z,63.08
2019-02-16T17:48:03.161Z,68.40
2019-02-16T17:50:33.765Z,67.12
2019-02-16T17:53:04.413Z,65.85
2019-02-16T17:55:41.443Z,66.72
2019-02-16T17:58:14.482Z,67.75
2019-02-16T18:01:03.428Z,67.60
2019-02-16T18:03:35.441Z,65.22
2019-02-16T18:06:07.657Z,62.55
2019-02-16T18:08:45.385Z,69.00
2019-02-16T18:11:18.479Z,68.47
2019-02-16T18:13:56.653Z,67.65
2019-02-16T18:16:45.802Z,68.05
2019-02-16T18:19:25.087Z,71.37
2019-02-16T18:21:55.767Z,74.50
2019-02-16T18:24:33.187Z,72.00
2019-02-16T18:27:18.999Z,71.17
2019-02-16T18:30:06.059Z,74.45
2019-02-16T18:32:51.823Z,69.80
2019-02-16T18:35:24.234Z,68.85
2019-02-16T18:37:54.756Z,76.12
2019-02-16T18:40:40.681Z,73.62
2019-02-16T18:43:24.546Z,77.60
2019-02-16T18:46:09.662Z,70.65
2019-02-16T18:48:43.377Z,78.52
2019-02-16T18:51:31.853Z,78.35
2019-02-16T18:54:18.716Z,73.80
2019-02-16T18:57:06.123Z,74.45
2019-02-16T18:59:37.606Z,76.70
2019-02-16T19:02:25.786Z,71.92
2019-02-16T19:04:59.406Z,76.28
2019-02-16T19:07:32.785Z,75.00
2019-02-16T19:10:06.391Z,82.80
2019-02-16T19:12:50.697Z,74.62
2019-02-16T19:15:39.667Z,76.55
2019-02-16T19:18:12.151Z,76.33
2019-02-16T19:20:44.671Z,76.92
2019-02-16T19:23:34.587Z,78.35
2019-02-16T19:26:07.716Z,73.83
2019-02-16T19:28:38.324Z,77.03
2019-02-16T19:31:11.658Z,78.22
2019-02-16T19:33:50.569Z,78.28
2019-02-16T19:36:23.937Z,83.17
2019-02-16T19:38:57.157Z,85.83
2019-02-16T19:41:27.789Z,78.20
2019-02-16T19:44:16.325Z,77.20
2019-02-16T19:46:55.901Z,80.00
2019-02-16T19:49:35.288Z,81.02
2019-02-16T19:52:08.801Z,78.92
2019-02-16T19:54:55.970Z,77.85
2019-02-16T19:57:29.403Z,78.20
2019-02-16T20:00:02.748Z,79.03
2019-02-16T20:02:46.246Z,78.07
2019-02-16T20:05:19.605Z,73.85
2019-02-16T20:07:51.479Z,76.37
2019-02-16T20:10:28.119Z,71.87
2019-02-16T20:13:14.913Z,76.55
2019-02-16T20:15:48.517Z,83.22
2019-02-16T20:18:22.062Z,81.65
2019-02-16T20:20:56.285Z,75.60
2019-02-16T20:23:45.587Z,76.70
2019-02-16T20:26:21.616Z,68.83
2019-02-16T20:29:10.343Z,78.17
2019-02-16T20:32:04.400Z,86.40
2019-02-16T20:34:35.022Z,82.27
2019-02-16T20:37:08.393Z,74.70
2019-02-16T20:39:41.391Z,86.42
2019-02-16T20:42:23.455Z,83.10
2019-02-16T20:44:56.397Z,90.00
2019-02-16T20:47:37.806Z,88.03
2019-02-16T20:50:09.770Z,83.55
2019-02-16T20:52:58.635Z,81.42
2019-02-16T20:55:31.231Z,83.62
2019-02-16T20:58:10.255Z,82.12
2019-02-16T21:01:02.248Z,73.95
2019-02-16T21:03:35.322Z,89.83
2019-02-16T21:06:08.837Z,83.42
2019-02-16T21:08:39.789Z,86.80
2019-02-16T21:11:27.957Z,91.97
2019-02-16T21:14:13.502Z,94.92
2019-02-16T21:16:54.937Z,91.87
2019-02-16T21:19:33.787Z,88.35
2019-02-16T21:22:09.921Z,87.75
2019-02-16T21:24:48.668Z,87.25
2019-02-16T21:27:23.520Z,85.12
2019-02-16T21:29:59.236Z,87.22
2019-02-16T21:32:38.720Z,92.02
2019-02-16T21:35:15.224Z,90.90
2019-02-16T21:37:51.664Z,98.37
2019-02-16T21:40:28.514Z,92.42
2019-02-16T21:42:59.258Z,100.95
2019-02-16T21:45:46.920Z,104.15
2019-02-16T21:48:19.658Z,99.70
2019-02-16T21:50:52.890Z,99.37
2019-02-16T21:53:24.051Z,93.87
2019-02-16T21:55:57.773Z,98.50
2019-02-16T21:58:32.234Z,98.12
2019-02-16T22:01:10.865Z,105.83
2019-02-16T22:03:53.275Z,104.70
2019-02-16T22:06:25.828Z,104.03
2019-02-16T22:09:00.370Z,98.27
2019-02-16T22:11:40.047Z,92.15
2019-02-16T22:14:10.794Z,95.72
2019-02-16T22:16:39.847Z,100.78
2019-02-16T22:19:08.849Z,92.40
2019-02-16T22:21:39.072Z,99.92
2019-02-16T22:24:08.039Z,100.10
2019-02-16T22:26:37.023Z,95.12
2019-02-16T22:31:38.522Z,91.70
2019-02-16T22:34:07.639Z,89.03
2019-02-16T22:36:39.722Z,89.97
2019-02-16T22:39:09.334Z,96.35
2019-02-16T22:41:38.290Z,94.07
2019-02-16T22:44:07.263Z,99.37
2019-02-16T22:46:38.945Z,98.70
2019-02-16T22:49:07.921Z,100.72
2019-02-16T22:51:36.892Z,100.82
2019-02-16T22:54:06.623Z,100.42
2019-02-16T22:56:37.485Z,97.40
2019-02-16T22:59:12.868Z,94.22
2019-02-16T23:01:44.095Z,102.85
2019-02-16T23:04:13.048Z,98.33
2019-02-16T23:06:42.034Z,102.22
2019-02-16T23:09:12.713Z,98.30
2019-02-16T23:11:43.511Z,93.95
2019-02-16T23:14:12.503Z,93.52
2019-02-16T23:16:41.531Z,100.55
2019-02-16T23:19:10.517Z,99.80
2019-02-16T23:21:41.021Z,96.40
2019-02-16T23:24:19.942Z,90.75
2019-02-16T23:26:48.601Z,91.25
2019-02-16T23:29:18.449Z,91.55
2019-02-16T23:31:49.197Z,81.37
2019-02-16T23:34:19.747Z,90.72
2019-02-16T23:36:50.221Z,89.37
2019-02-16T23:39:19.185Z,88.52
2019-02-16T23:41:48.172Z,87.70
2019-02-16T23:44:17.153Z,90.62
2019-02-16T23:46:46.136Z,87.12
2019-02-16T23:49:16.277Z,82.72
2019-02-16T23:54:13.546Z,81.75
2019-02-16T23:56:43.243Z,83.27
2019-02-16T23:59:15.084Z,85.83
